Los Angeles, California
Current Conditions -  °F | °C
As of 8:47 PM on Friday 26 Dec 2014 (Local Time) from KCQT Reporting Station
Clear Clear  
Wind Chill: 51°   Ceiling: Unl
Heat Index: 51°   Visibility: 10mi
Dew Point: 27°   Wind: 6mph
Humidity: 39%   Direction: 100°E
Pressure: 30.17"   Gusts: NA
Location:  34.05°N, 118.24°W
Report Text: KCQT 270447Z AUTO 10005KT 10SM CLR 11/M03 A3017 RMK AO2 SLP216 T01061028
Loading
Personal Weather Stations






























Interactive Weather Map New forecast layout! Learn more

10-Day Weather Forecast

Advertisements
Track Severe Weather on mobile